Airfield :
LOGIN :

Register | Disclaimer

   EN    FR    IT 

 










Legend :    VFR   Marginal VFR   IFR   Intensive IFR   Very Intensive IFR
Visi :
Ceiling :
>= 8 km
>= 3000ft
5 to 8 km
1000 to 3000 ft
1500m to 5 km
500 to 1000 ft
800 to 1500m
200 to 500 ft
< 800m
< 200 ft
Symbols :   Thunderstorms  Fog  Heavy snow  Heavy precipitations  Wind > 20 kt
SIGMETs :     Misc.  Thunderstorms  Icing  Turbulence  Mountain Waves  Volcanic Ashes






- Airport Elevation : 257 ft
- IATA code : MAN


EGCC - Manchester

CURRENT METAR :
  • 260220Z AUTO 18006KT 130V210 9999 BKN008 OVC016 07/06 Q1009

EXPIRED METARs :
  • 260150Z AUTO VRB04KT 9999 OVC007 07/06 Q1009 NOSIG
  • 260120Z AUTO 18006KT 140V210 8000 BKN006 OVC013 07/06 Q1009
  • 260050Z AUTO 17005KT 110V240 9000 OVC007 07/06 Q1010 NOSIG
  • 260020Z AUTO 17006KT 120V220 8000 OVC006 07/06 Q1010 TEMPO 3000 BR
  • 252350Z AUTO 17004KT 110V230 9999 OVC008 07/06 Q1011 NOSIG

TAF AMD TAF EGCC
Valid from the 26 at 00:00 until the 27 at 06:00 UTC


260055Z 2600/2706 20006KT 9999 BKN007
TEMPO 2600/2606 5000 BR
PROB30
TEMPO 2600/2603 3000 DZ BKN004
BECMG 2603/2606 SCT020
TEMPO 2609/2615 7000 RA BKN010
PROB40
TEMPO 2609/2612 18015G25KT
BECMG 2612/2615 27010KT
BECMG 2615/2618 18008KT
PROB30
TEMPO 2700/2706 BKN014
ATIS : +44 161 499 2324



MET'MAP, your aeronautical weather chart ! - Copyright ORBIFLY December 2007 - Disclaimer

ORBIFLY MET'MAP TEAM :

Programming & Development : Alexandra Zaïnal
Concept & original design : Baudouin d'Aumeries
Assistance for programming : Marc-Olivier Méhu
Technical & hardware support : Manuel Goepfert

Contact : metmap@orbifly.com




SOURCES & CREDITS :

   NOAA